Time;durP1;ratioP1;P1;durP2;ratioP2;P2;SDS_P1;SDS_P2;PMS_P1;PMS_P2;Temp;Humidity;BMP_temperature;BMP_pressure;BME280_temperature;BME280_humidity;BME280_pressure;Samples;Min_cycle;Max_cycle;Signal;HPM_P1;HPM_P2
2022/03/21 00:00:42;;;;;;;66.45;42.95;;;;;;;2.00;77.50;102854.00;5036986;28;20344;-60
2022/03/21 00:03:09;;;;;;;67.00;42.42;;;;;;;1.99;77.91;102867.72;5036686;28;20105;-61
2022/03/21 00:05:35;;;;;;;67.80;42.92;;;;;;;1.91;78.12;102864.72;5036553;28;20033;-60
2022/03/21 00:08:00;;;;;;;67.40;43.45;;;;;;;1.92;77.87;102873.34;5036754;28;20091;-60
2022/03/21 00:10:26;;;;;;;66.50;43.95;;;;;;;1.87;77.97;102867.06;5036746;28;20039;-60
2022/03/21 00:12:51;;;;;;;67.05;43.55;;;;;;;1.80;78.88;102864.94;5036591;28;20109;-60
2022/03/21 00:15:17;;;;;;;68.13;42.15;;;;;;;1.69;78.98;102847.19;5036609;28;20021;-60
2022/03/21 00:17:43;;;;;;;66.93;43.50;;;;;;;1.81;78.85;102871.88;5036222;28;20095;-60
2022/03/21 00:20:10;;;;;;;69.72;43.40;;;;;;;1.81;78.79;102871.88;5036558;28;20049;-60
2022/03/21 00:22:37;;;;;;;68.65;42.60;;;;;;;1.80;78.81;102873.56;5036270;28;20040;-60
2022/03/21 00:25:04;;;;;;;70.13;43.38;;;;;;;1.74;78.81;102871.53;5036124;28;20037;-60
2022/03/21 00:27:29;;;;;;;65.32;42.20;;;;;;;1.69;78.66;102872.13;5036153;28;20033;-60
2022/03/21 00:29:54;;;;;;;71.50;44.55;;;;;;;1.70;78.74;102873.88;5036383;28;20044;-60
2022/03/21 00:32:20;;;;;;;63.28;41.45;;;;;;;1.69;78.76;102877.28;5036071;28;20033;-60
2022/03/21 00:34:45;;;;;;;68.32;44.28;;;;;;;1.61;78.92;102866.50;5036292;28;20357;-60
2022/03/21 00:37:12;;;;;;;67.65;43.70;;;;;;;1.66;79.11;102875.41;5036168;28;20112;-60
2022/03/21 00:39:39;;;;;;;70.75;45.45;;;;;;;1.64;79.14;102879.59;5035737;28;20029;-60
2022/03/21 00:42:04;;;;;;;69.85;43.90;;;;;;;1.56;78.97;102875.69;5036069;28;20195;-60
2022/03/21 00:44:29;;;;;;;69.07;44.08;;;;;;;1.55;79.11;102873.06;5036095;28;20108;-60
2022/03/21 00:46:55;;;;;;;68.50;43.58;;;;;;;1.58;79.33;102886.09;5035901;28;20055;-60
2022/03/21 00:49:20;;;;;;;68.93;43.85;;;;;;;1.54;79.09;102891.91;5035291;28;20041;-60
2022/03/21 00:51:45;;;;;;;72.88;46.50;;;;;;;1.52;79.31;102886.66;5036375;28;20033;-60
2022/03/21 00:54:10;;;;;;;72.78;45.08;;;;;;;1.51;78.91;102891.72;5035751;28;20034;-60
2022/03/21 00:56:35;;;;;;;70.90;45.13;;;;;;;1.46;79.43;102894.03;5035935;28;20028;-60
2022/03/21 00:59:01;;;;;;;73.97;46.55;;;;;;;1.45;79.52;102881.06;5035693;28;20368;-60
2022/03/21 01:01:26;;;;;;;74.57;46.90;;;;;;;1.37;79.98;102888.38;5035494;28;20029;-60
2022/03/21 01:03:51;;;;;;;76.72;48.45;;;;;;;1.33;79.59;102896.75;5035575;28;20182;-60
2022/03/21 01:06:17;;;;;;;78.20;47.90;;;;;;;1.33;79.98;102897.63;5035663;28;20033;-60
2022/03/21 01:08:42;;;;;;;73.60;46.72;;;;;;;1.25;80.19;102896.28;5035563;28;20116;-60
2022/03/21 01:11:07;;;;;;;78.88;48.15;;;;;;;1.16;80.43;102893.19;5035345;28;20033;-60
2022/03/21 01:13:32;;;;;;;77.68;48.50;;;;;;;1.18;80.88;102903.59;5035677;28;20041;-60
2022/03/21 01:15:58;;;;;;;73.55;46.25;;;;;;;1.18;80.39;102904.50;5035459;28;20432;-60
2022/03/21 01:18:23;;;;;;;76.65;47.80;;;;;;;1.20;80.73;102907.16;5035549;28;20436;-60
2022/03/21 01:20:48;;;;;;;75.25;47.05;;;;;;;1.18;80.64;102903.59;5035382;28;20077;-59
2022/03/21 01:23:14;;;;;;;80.82;48.83;;;;;;;1.10;80.63;102907.41;5035414;28;20025;-60
2022/03/21 01:25:39;;;;;;;75.88;48.08;;;;;;;1.05;80.90;102901.97;5035741;28;20108;-60
2022/03/21 01:28:04;;;;;;;77.05;47.70;;;;;;;1.02;81.04;102901.81;5035257;28;20036;-60
2022/03/21 01:30:30;;;;;;;78.32;47.20;;;;;;;0.97;80.93;102893.81;5035308;28;20037;-60
2022/03/21 01:32:55;;;;;;;75.97;47.97;;;;;;;1.01;81.12;102895.78;5035153;28;20058;-60
2022/03/21 01:35:21;;;;;;;72.05;46.03;;;;;;;0.97;81.08;102904.13;5034883;28;20029;-60
2022/03/21 01:37:47;;;;;;;75.80;47.30;;;;;;;0.91;81.45;102908.91;5035211;28;20037;-60
2022/03/21 01:40:15;;;;;;;79.50;48.63;;;;;;;0.85;81.38;102908.56;5035096;28;20353;-60
2022/03/21 01:42:43;;;;;;;81.20;49.17;;;;;;;0.78;81.57;102910.69;5034974;28;20040;-60
2022/03/21 01:45:09;;;;;;;79.18;48.05;;;;;;;0.76;81.65;102902.84;5034617;28;20034;-60
2022/03/21 01:47:35;;;;;;;79.05;48.10;;;;;;;0.79;82.08;102909.88;5034901;28;20026;-60
2022/03/21 01:50:03;;;;;;;74.85;46.92;;;;;;;0.80;81.60;102906.50;5035049;28;20111;-60
2022/03/21 01:52:28;;;;;;;76.10;46.97;;;;;;;0.78;81.35;102893.53;5034260;28;20029;-59
2022/03/21 01:57:38;;;;;;;76.05;45.42;;;;;;;0.63;81.88;102880.63;5034902;28;20052;-60
2022/03/21 02:00:05;;;;;;;74.28;46.55;;;;;;;0.75;81.50;102897.63;5034795;28;20029;-60
2022/03/21 02:02:30;;;;;;;74.75;47.88;;;;;;;0.73;82.01;102905.25;5034738;28;20516;-60
2022/03/21 02:04:56;;;;;;;74.65;45.67;;;;;;;0.68;81.33;102891.22;5035473;28;20053;-60
2022/03/21 02:07:21;;;;;;;76.75;47.30;;;;;;;0.64;81.96;102899.56;5034768;28;20037;-59
2022/03/21 02:09:46;;;;;;;75.68;46.92;;;;;;;0.64;82.17;102909.88;5034729;28;20029;-59
2022/03/21 02:12:12;;;;;;;74.10;46.63;;;;;;;0.62;81.68;102906.31;5034654;28;20033;-60
2022/03/21 02:14:39;;;;;;;76.65;46.95;;;;;;;0.57;81.91;102902.56;5034701;28;20060;-60
2022/03/21 02:17:05;;;;;;;78.50;47.13;;;;;;;0.51;82.07;102903.09;5034581;28;20360;-59
2022/03/21 02:19:32;;;;;;;78.80;47.95;;;;;;;0.43;82.17;102900.84;5033499;28;20072;-60
2022/03/21 02:22:15;;;;;;;75.93;46.97;;;;;;;0.53;81.69;102903.16;5034457;28;20516;-60
2022/03/21 02:24:56;;;;;;;76.20;47.05;;;;;;;0.52;81.71;102910.00;5034320;28;20139;-60
2022/03/21 02:27:25;;;;;;;79.03;48.05;;;;;;;0.37;81.90;102880.75;5034561;28;20037;-60
2022/03/21 02:29:52;;;;;;;74.70;46.22;;;;;;;0.53;81.72;102914.34;5034159;28;20480;-60
2022/03/21 02:32:18;;;;;;;78.57;47.65;;;;;;;0.45;82.00;102907.88;5034628;28;20041;-60
2022/03/21 02:34:45;;;;;;;78.60;46.80;;;;;;;0.38;82.36;102915.13;5034518;28;20092;-60
2022/03/21 02:37:15;;;;;;;76.45;47.35;;;;;;;0.33;82.67;102918.31;5034378;28;20433;-59
2022/03/21 02:39:42;;;;;;;76.53;47.90;;;;;;;0.30;82.55;102912.97;5033258;28;20041;-60
2022/03/21 02:42:08;;;;;;;81.35;48.85;;;;;;;0.30;82.82;102912.09;5034219;28;20064;-59
2022/03/21 02:44:38;;;;;;;79.72;48.03;;;;;;;0.31;82.71;102916.44;5034141;28;20396;-60
2022/03/21 02:47:05;;;;;;;79.90;48.65;;;;;;;0.27;82.83;102915.34;5034457;28;20105;-59
2022/03/21 02:49:31;;;;;;;77.63;47.33;;;;;;;0.27;82.62;102909.31;5033916;28;20048;-59
2022/03/21 02:51:59;;;;;;;78.47;48.10;;;;;;;0.19;83.01;102910.50;5034474;28;20033;-59
2022/03/21 02:54:26;;;;;;;84.18;47.78;;;;;;;0.08;83.26;102907.28;5034453;28;20425;-59
2022/03/21 02:56:51;;;;;;;81.15;48.72;;;;;;;-0.05;83.49;102910.78;5034400;28;20033;-59
2022/03/21 02:59:17;;;;;;;82.78;48.92;;;;;;;-0.07;84.17;102912.38;5034384;28;20464;-60
2022/03/21 03:01:43;;;;;;;77.85;47.75;;;;;;;-0.08;84.01;102907.13;5032919;28;20061;-59
2022/03/21 03:04:08;;;;;;;83.13;48.53;;;;;;;-0.05;84.16;102907.34;5037652;28;20053;-59
2022/03/21 03:06:34;;;;;;;81.97;49.25;;;;;;;-0.15;84.15;102892.09;5037942;28;20475;-59
2022/03/21 03:08:59;;;;;;;80.28;48.40;;;;;;;-0.03;84.17;102900.59;5037757;28;20356;-59
2022/03/21 03:11:25;;;;;;;83.70;49.40;;;;;;;0.04;84.23;102910.47;5037430;28;20044;-59
2022/03/21 03:13:50;;;;;;;88.32;49.58;;;;;;;-0.09;84.07;102900.19;5037489;28;20029;-59
2022/03/21 03:16:15;;;;;;;80.28;47.83;;;;;;;-0.02;84.18;102902.38;5037667;28;20073;-59
2022/03/21 03:18:44;;;;;;;82.10;49.40;;;;;;;0.00;84.07;102903.38;5037703;28;20128;-60
2022/03/21 03:21:10;;;;;;;80.07;48.05;;;;;;;0.07;84.19;102905.50;5037446;28;20083;-59
2022/03/21 03:23:40;;;;;;;83.57;47.75;;;;;;;0.06;83.96;102910.56;5037632;28;20468;-59
2022/03/21 03:26:06;;;;;;;85.03;49.00;;;;;;;0.06;84.00;102911.44;5037325;28;20428;-59
2022/03/21 03:28:31;;;;;;;83.30;49.33;;;;;;;0.03;83.81;102916.41;5037515;28;20125;-59
2022/03/21 03:31:00;;;;;;;86.63;48.83;;;;;;;-0.05;84.35;102909.91;5037506;28;20352;-59
2022/03/21 03:33:27;;;;;;;83.30;48.78;;;;;;;-0.06;84.19;102921.00;5037379;28;20476;-59
2022/03/21 03:35:53;;;;;;;84.57;48.15;;;;;;;0.00;84.11;102916.25;5037498;28;20057;-60
2022/03/21 03:38:18;;;;;;;82.20;49.38;;;;;;;-0.02;84.23;102929.00;5037543;28;20388;-59
2022/03/21 03:40:44;;;;;;;83.93;49.33;;;;;;;-0.01;84.22;102924.75;5037114;28;20425;-59
2022/03/21 03:43:10;;;;;;;82.03;48.38;;;;;;;-0.04;84.28;102909.13;5037475;28;20116;-59
2022/03/21 03:45:36;;;;;;;85.50;49.70;;;;;;;-0.04;83.88;102917.72;5037208;28;20056;-59
2022/03/21 03:48:02;;;;;;;82.70;49.58;;;;;;;0.00;84.35;102922.25;5037124;28;20037;-59
2022/03/21 03:50:28;;;;;;;81.20;49.17;;;;;;;-0.03;83.84;102931.47;5036907;28;20087;-61
2022/03/21 03:52:53;;;;;;;83.40;48.13;;;;;;;-0.07;83.55;102924.34;5036857;28;20349;-60
2022/03/21 03:55:18;;;;;;;83.88;48.90;;;;;;;-0.11;84.06;102922.38;5036647;28;20037;-59
2022/03/21 03:57:45;;;;;;;82.97;48.92;;;;;;;-0.11;84.45;102928.41;5036646;28;20029;-59
2022/03/21 04:00:11;;;;;;;82.32;48.67;;;;;;;-0.10;84.28;102927.63;5036602;28;20121;-59
2022/03/21 04:03:44;;;;;;;82.65;49.17;;;;;;;-0.14;84.73;102929.91;5036793;28;20048;-60
2022/03/21 04:05:22;;;;;;;85.15;49.58;;;;;;;-0.11;84.92;102941.28;5036965;28;20356;-60
2022/03/21 04:07:48;;;;;;;83.72;48.97;;;;;;;-0.11;85.06;102940.38;5036506;28;20032;-60
2022/03/21 04:10:13;;;;;;;85.80;49.42;;;;;;;-0.11;85.16;102932.66;5036737;28;20129;-60
2022/03/21 04:12:39;;;;;;;82.25;48.90;;;;;;;-0.08;84.92;102938.00;5036049;28;20973;-60
2022/03/21 04:15:04;;;;;;;85.50;51.05;;;;;;;-0.12;85.40;102931.78;5036263;28;20103;-59
2022/03/21 04:17:30;;;;;;;81.30;47.80;;;;;;;-0.23;84.91;102907.06;5036662;28;20033;-60
2022/03/21 04:19:55;;;;;;;82.57;48.83;;;;;;;-0.13;84.69;102929.09;5036234;28;20056;-60
2022/03/21 04:22:20;;;;;;;81.53;48.42;;;;;;;-0.13;85.04;102930.00;5036393;28;20029;-59
2022/03/21 04:24:45;;;;;;;84.82;48.35;;;;;;;-0.15;85.01;102940.97;5036249;28;20120;-59
2022/03/21 04:27:11;;;;;;;83.60;49.22;;;;;;;-0.22;84.66;102933.69;5036633;28;20040;-59
2022/03/21 04:29:36;;;;;;;81.80;48.83;;;;;;;-0.22;84.97;102933.69;5036595;28;20432;-60
2022/03/21 04:32:01;;;;;;;83.75;47.67;;;;;;;-0.20;85.28;102932.09;5035831;28;20030;-59
2022/03/21 04:34:26;;;;;;;83.85;47.45;;;;;;;-0.20;85.04;102933.00;5036084;28;20398;-60
2022/03/21 04:36:52;;;;;;;85.78;48.95;;;;;;;-0.19;85.34;102931.31;5035898;28;20434;-59
2022/03/21 04:39:17;;;;;;;84.97;48.25;;;;;;;-0.22;85.07;102924.28;5035889;28;20029;-59
2022/03/21 04:41:42;;;;;;;81.38;48.78;;;;;;;-0.19;85.14;102931.31;5036290;28;20540;-59
2022/03/21 04:44:07;;;;;;;79.78;47.55;;;;;;;-0.18;84.90;102926.25;5035961;28;20029;-59
2022/03/21 04:46:33;;;;;;;79.38;47.05;;;;;;;-0.16;85.18;102939.19;5036040;28;20090;-60
2022/03/21 04:48:58;;;;;;;80.15;47.92;;;;;;;-0.21;85.35;102935.47;5035707;28;20052;-59
2022/03/21 04:51:23;;;;;;;83.90;48.17;;;;;;;-0.27;85.20;102920.50;5036175;28;20033;-59
2022/03/21 04:53:48;;;;;;;85.47;48.75;;;;;;;-0.23;85.16;102937.94;5035658;28;20037;-60
2022/03/21 04:56:14;;;;;;;80.63;46.85;;;;;;;-0.25;85.38;102931.81;5035919;28;20045;-59
2022/03/21 04:58:39;;;;;;;79.57;46.38;;;;;;;-0.25;85.40;102938.63;5035939;28;20320;-59
2022/03/21 05:01:04;;;;;;;79.72;47.40;;;;;;;-0.28;85.62;102944.47;5035579;28;20175;-59
2022/03/21 05:03:30;;;;;;;81.80;47.70;;;;;;;-0.29;85.80;102934.97;5035632;28;20028;-60
2022/03/21 05:05:55;;;;;;;82.70;47.42;;;;;;;-0.28;85.55;102948.72;5036282;28;20041;-59
2022/03/21 05:08:21;;;;;;;80.15;46.83;;;;;;;-0.25;85.54;102951.50;5035921;28;20030;-59
2022/03/21 05:10:47;;;;;;;79.32;46.38;;;;;;;-0.28;85.68;102948.72;5035393;28;20424;-60
2022/03/21 05:13:14;;;;;;;77.55;46.40;;;;;;;-0.27;85.52;102955.63;5035638;28;20087;-59
2022/03/21 05:15:39;;;;;;;82.03;46.72;;;;;;;-0.27;85.03;102965.94;5036091;28;20039;-59
2022/03/21 05:18:04;;;;;;;81.22;46.65;;;;;;;-0.31;85.66;102959.69;5035377;28;20112;-68
2022/03/21 05:20:30;;;;;;;81.32;45.97;;;;;;;-0.31;85.65;102961.38;5035069;28;20049;-59
2022/03/21 05:31:08;;;;;;;82.20;45.95;;;;;;;-0.33;85.53;102948.41;5035495;28;20146;-59
2022/03/21 05:36:18;;;;;;;78.10;45.67;;;;;;;-0.35;85.37;102948.31;5035219;28;20055;-59
2022/03/21 05:38:44;;;;;;;81.15;45.58;;;;;;;-0.37;85.94;102957.63;5035229;28;20056;-59
2022/03/21 05:41:10;;;;;;;79.13;46.25;;;;;;;-0.41;85.93;102953.06;5035024;28;20025;-59
2022/03/21 05:43:35;;;;;;;86.75;47.42;;;;;;;-0.42;86.20;102959.00;5035064;28;20132;-59
2022/03/21 05:46:03;;;;;;;76.82;45.95;;;;;;;-0.35;86.22;102950.88;5035185;28;20029;-59
2022/03/21 05:51:13;;;;;;;74.72;44.65;;;;;;;-0.40;86.39;102954.84;5035236;28;20048;-59
2022/03/21 05:53:38;;;;;;;76.43;43.80;;;;;;;-0.41;86.81;102952.19;5034154;28;20037;-59
2022/03/21 05:56:04;;;;;;;80.63;45.67;;;;;;;-0.35;86.96;102955.16;5034515;28;20043;-59
2022/03/21 05:58:30;;;;;;;77.25;44.92;;;;;;;-0.30;86.69;102958.00;5034841;28;20041;-59
2022/03/21 06:00:56;;;;;;;78.70;45.03;;;;;;;-0.24;86.50;102961.88;5034133;28;20095;-59
2022/03/21 06:03:21;;;;;;;78.93;45.10;;;;;;;-0.18;86.90;102972.56;5034669;28;20045;-59
2022/03/21 06:05:47;;;;;;;78.38;43.15;;;;;;;-0.21;86.64;102968.91;5034530;28;20116;-59
2022/03/21 06:08:12;;;;;;;81.63;44.45;;;;;;;-0.13;86.63;102978.88;5034007;28;20046;-60
2022/03/21 06:10:37;;;;;;;74.03;43.67;;;;;;;-0.14;86.87;102971.94;5034852;28;20037;-59
2022/03/21 06:13:05;;;;;;;77.78;45.67;;;;;;;-0.08;87.12;102974.94;5035100;28;20061;-60
2022/03/21 06:15:31;;;;;;;78.95;45.13;;;;;;;-0.06;86.99;102969.88;5034408;28;20044;-60
2022/03/21 06:17:59;;;;;;;77.18;43.65;;;;;;;-0.14;86.88;102948.78;5034504;28;20048;-60
2022/03/21 06:20:25;;;;;;;79.82;44.33;;;;;;;0.10;86.93;102980.34;5034123;28;20056;-59
2022/03/21 06:22:50;;;;;;;77.22;45.85;;;;;;;0.23;86.96;102948.53;5034444;28;20033;-59
2022/03/21 06:25:16;;;;;;;82.05;44.70;;;;;;;0.76;85.61;102972.44;5034268;28;20037;-60
2022/03/21 06:27:41;;;;;;;76.13;44.00;;;;;;;1.38;83.40;102973.59;5034542;28;20337;-59
2022/03/21 06:30:08;;;;;;;73.70;42.38;;;;;;;2.01;81.63;102974.56;5034551;28;20069;-59
2022/03/21 06:32:34;;;;;;;69.10;41.38;;;;;;;2.48;79.95;102973.66;5034428;28;20409;-59
2022/03/21 06:35:00;;;;;;;67.75;41.15;;;;;;;2.83;78.46;102971.25;5034793;28;20041;-59
2022/03/21 06:37:25;;;;;;;68.05;40.75;;;;;;;3.02;77.24;102958.47;5035029;28;20033;-60
2022/03/21 06:39:50;;;;;;;66.43;40.30;;;;;;;3.40;76.51;102975.03;5038595;28;20452;-59
2022/03/21 06:42:17;;;;;;;68.35;40.45;;;;;;;3.59;75.69;102972.56;5038221;28;20025;-60
2022/03/21 06:44:42;;;;;;;65.03;39.72;;;;;;;3.75;75.38;102977.66;5038159;28;20463;-59
2022/03/21 06:47:08;;;;;;;68.50;40.20;;;;;;;3.93;74.92;102974.19;5038352;28;20029;-60
2022/03/21 06:49:34;;;;;;;65.15;39.75;;;;;;;4.01;74.65;102978.00;5038336;28;20033;-59
2022/03/21 06:52:02;;;;;;;62.92;40.15;;;;;;;3.99;75.09;102982.22;5037875;28;20392;-59
2022/03/21 06:54:28;;;;;;;68.03;41.83;;;;;;;4.05;74.98;102985.13;5037760;28;20429;-60
2022/03/21 06:56:54;;;;;;;65.90;40.83;;;;;;;4.07;75.47;102983.50;5038091;28;20107;-60
2022/03/21 06:59:19;;;;;;;68.47;40.10;;;;;;;4.15;75.78;102982.16;5038313;28;20441;-60
2022/03/21 07:01:44;;;;;;;66.70;41.42;;;;;;;4.23;75.67;102985.97;5038000;28;20052;-59
2022/03/21 07:04:10;;;;;;;67.28;40.22;;;;;;;4.35;75.79;102985.66;5038235;28;20026;-59
2022/03/21 07:06:35;;;;;;;65.75;40.45;;;;;;;4.48;75.49;102994.09;5037884;28;20056;-61
2022/03/21 07:09:00;;;;;;;65.75;41.83;;;;;;;4.62;75.47;102989.53;5037740;28;20029;-60
2022/03/21 07:11:25;;;;;;;65.00;41.15;;;;;;;4.80;75.32;102995.53;5037916;28;20033;-60
2022/03/21 07:13:51;;;;;;;64.32;41.28;;;;;;;4.91;74.64;102996.00;5036709;28;20084;-60
2022/03/21 07:16:16;;;;;;;67.28;41.33;;;;;;;5.01;74.97;102997.31;5037635;28;20092;-58
2022/03/21 07:18:42;;;;;;;68.07;42.55;;;;;;;5.11;75.04;102997.75;5037176;28;20045;-58
2022/03/21 07:21:08;;;;;;;68.25;43.00;;;;;;;5.18;75.62;103002.41;5037823;28;20045;-59
2022/03/21 07:23:34;;;;;;;61.95;40.50;;;;;;;5.27;75.55;102998.41;5037617;28;20026;-60
2022/03/21 07:25:59;;;;;;;67.60;40.95;;;;;;;5.32;75.87;102999.50;5037400;28;20044;-61
2022/03/21 07:28:26;;;;;;;70.65;43.80;;;;;;;5.40;75.95;102995.50;5037776;28;20029;-60
2022/03/21 07:30:51;;;;;;;64.38;42.63;;;;;;;5.58;76.84;102993.69;5037362;28;20029;-59
2022/03/21 07:33:18;;;;;;;63.15;41.50;;;;;;;5.76;75.87;103002.25;5037346;28;20040;-60
2022/03/21 07:35:44;;;;;;;65.85;41.83;;;;;;;5.96;75.41;103004.78;5037405;28;20029;-60
2022/03/21 07:38:09;;;;;;;66.93;41.25;;;;;;;6.13;75.50;102993.34;5037216;28;20052;-60
2022/03/21 07:40:35;;;;;;;67.57;41.95;;;;;;;6.31;74.69;102991.47;5037172;28;20025;-60
2022/03/21 07:43:00;;;;;;;65.93;41.78;;;;;;;6.53;74.22;102996.66;5036605;28;20042;-60
2022/03/21 07:48:12;;;;;;;52.10;32.38;;;;;;;7.04;76.73;102999.41;5037605;28;20059;-60
2022/03/21 07:50:38;;;;;;;50.08;31.25;;;;;;;7.30;76.48;102998.56;5036035;28;20026;-60
2022/03/21 07:53:04;;;;;;;51.80;30.05;;;;;;;7.42;76.12;102997.25;5036934;28;20411;-60
2022/03/21 07:55:33;;;;;;;50.67;29.30;;;;;;;7.64;75.08;102999.72;5036880;28;20029;-60
2022/03/21 07:57:59;;;;;;;48.60;28.63;;;;;;;7.80;74.96;102999.38;5036883;28;20040;-60
2022/03/21 08:00:26;;;;;;;47.80;28.73;;;;;;;7.86;74.20;102996.97;5036754;28;20083;-60
2022/03/21 08:02:51;;;;;;;43.33;26.85;;;;;;;8.07;73.58;102994.19;5036820;28;20113;-61
2022/03/21 08:05:18;;;;;;;44.00;26.95;;;;;;;8.14;72.91;102993.50;5037237;28;20123;-60
2022/03/21 08:07:43;;;;;;;42.83;27.75;;;;;;;8.21;72.99;103000.69;5036203;28;20033;-60
2022/03/21 08:10:12;;;;;;;46.78;26.95;;;;;;;8.47;72.37;102992.81;5036607;28;20056;-61
2022/03/21 08:12:42;;;;;;;42.72;26.65;;;;;;;8.80;70.55;102993.78;5036527;28;20401;-60
2022/03/21 08:15:08;;;;;;;45.08;26.08;;;;;;;9.27;69.30;102996.81;5036768;28;20037;-60
2022/03/21 08:17:45;;;;;;;40.97;24.85;;;;;;;9.50;68.53;102994.81;5036413;28;20120;-60
2022/03/21 08:20:10;;;;;;;37.50;23.65;;;;;;;9.60;67.20;102984.59;5036634;28;20053;-60
2022/03/21 08:22:35;;;;;;;37.35;23.27;;;;;;;10.04;65.98;102990.03;5036528;28;20030;-60
2022/03/21 08:25:00;;;;;;;32.65;22.08;;;;;;;10.65;64.10;102996.63;5036492;28;20030;-60
2022/03/21 08:27:26;;;;;;;42.35;23.10;;;;;;;11.15;62.42;102992.38;5036833;28;20083;-60
2022/03/21 08:29:51;;;;;;;32.88;19.85;;;;;;;11.55;60.12;102991.38;5036497;28;20029;-60
2022/03/21 08:32:16;;;;;;;29.55;17.70;;;;;;;11.71;58.41;102987.25;5035311;28;20041;-61
2022/03/21 08:34:42;;;;;;;30.08;18.13;;;;;;;12.19;57.27;102981.88;5035134;28;20415;-61
2022/03/21 08:37:07;;;;;;;28.00;17.92;;;;;;;12.84;55.12;102985.34;5036494;28;20347;-61
2022/03/21 08:39:32;;;;;;;27.95;15.70;;;;;;;13.49;51.90;102982.56;5036075;28;20030;-58
2022/03/21 08:41:57;;;;;;;26.02;15.57;;;;;;;13.86;50.59;102977.56;5036034;28;20030;-61
2022/03/21 08:44:23;;;;;;;27.50;15.45;;;;;;;13.98;49.99;102975.03;5036267;28;20333;-61
2022/03/21 08:46:48;;;;;;;28.48;15.73;;;;;;;14.02;50.27;102982.09;5035957;28;20029;-61
2022/03/21 08:49:26;;;;;;;27.63;16.08;;;;;;;13.93;49.95;102980.25;5036054;28;20129;-61
2022/03/21 08:51:52;;;;;;;29.77;16.08;;;;;;;13.64;49.63;102968.66;5036157;28;20091;-61
2022/03/21 08:54:17;;;;;;;27.77;15.57;;;;;;;13.21;50.56;102978.78;5029464;28;20033;-61
2022/03/21 08:56:43;;;;;;;27.75;15.98;;;;;;;12.71;51.67;102979.94;5035295;28;20033;-61
2022/03/21 08:59:08;;;;;;;29.70;16.42;;;;;;;12.46;53.62;102984.91;5035696;28;20033;-61
2022/03/21 09:01:34;;;;;;;26.15;16.13;;;;;;;12.31;54.29;102986.41;5034973;28;20151;-61
2022/03/21 09:04:02;;;;;;;26.45;16.83;;;;;;;12.06;54.66;102983.47;5035889;28;20033;-61
2022/03/21 09:06:28;;;;;;;26.90;17.35;;;;;;;12.02;55.23;102984.28;5035816;28;20436;-61
2022/03/21 09:08:54;;;;;;;30.90;16.85;;;;;;;12.10;55.51;102981.78;5034837;28;20052;-61
2022/03/21 09:11:19;;;;;;;27.85;17.38;;;;;;;12.05;55.34;102981.69;5035897;28;20434;-61
2022/03/21 09:13:48;;;;;;;32.65;18.27;;;;;;;12.24;56.24;102989.84;5035669;28;20037;-61
2022/03/21 09:16:14;;;;;;;31.00;18.77;;;;;;;12.26;55.50;102989.00;5036125;28;20131;-61
2022/03/21 09:18:41;;;;;;;28.45;18.23;;;;;;;12.28;55.37;102991.66;5035553;28;20029;-61
2022/03/21 09:21:07;;;;;;;27.65;17.67;;;;;;;12.28;55.00;102991.66;5034851;28;20085;-61
2022/03/21 09:23:33;;;;;;;31.90;18.98;;;;;;;12.33;55.34;102990.84;5035551;28;20104;-61
2022/03/21 09:26:00;;;;;;;28.30;18.88;;;;;;;12.40;55.99;102984.81;5035262;28;20108;-61
2022/03/21 09:28:26;;;;;;;30.52;18.88;;;;;;;12.62;55.28;102983.34;5035232;28;20029;-62
2022/03/21 09:30:51;;;;;;;30.60;19.30;;;;;;;12.72;54.76;102982.59;5034993;28;20456;-61
2022/03/21 09:33:16;;;;;;;28.88;18.17;;;;;;;12.87;53.71;102982.75;5035136;28;20068;-61
2022/03/21 09:35:44;;;;;;;30.17;17.80;;;;;;;13.08;53.44;102963.72;5035356;28;20025;-61
2022/03/21 09:38:10;;;;;;;30.17;17.27;;;;;;;13.33;53.77;102961.38;5034718;28;20360;-59
2022/03/21 09:40:36;;;;;;;29.13;17.05;;;;;;;13.37;51.84;102971.91;5034818;28;20030;-59
2022/03/21 09:43:01;;;;;;;28.73;17.13;;;;;;;13.55;52.11;102961.56;5034733;28;20032;-59
2022/03/21 09:45:28;;;;;;;31.05;17.42;;;;;;;13.55;52.26;102965.94;5034861;28;20401;-59
2022/03/21 09:48:09;;;;;;;29.95;16.92;;;;;;;13.68;51.68;102959.03;5034846;28;20037;-59
2022/03/21 09:50:36;;;;;;;28.77;16.75;;;;;;;13.74;51.32;102959.06;5034773;28;20044;-58
2022/03/21 09:53:10;;;;;;;31.35;17.52;;;;;;;13.90;51.58;102958.31;5034682;28;20038;-59
2022/03/21 09:55:35;;;;;;;25.80;16.25;;;;;;;14.14;49.97;102957.59;5034313;28;20468;-62
2022/03/21 09:58:02;;;;;;;27.90;16.30;;;;;;;14.12;48.75;102959.31;5034653;28;20033;-61
2022/03/21 10:00:27;;;;;;;24.13;15.63;;;;;;;14.18;49.39;102954.97;5034927;28;20041;-61
2022/03/21 10:02:53;;;;;;;27.65;16.10;;;;;;;14.32;48.93;102951.53;5035053;28;20029;-61
2022/03/21 10:05:32;;;;;;;24.88;15.55;;;;;;;14.37;49.46;102958.59;5034730;28;20436;-60
2022/03/21 10:08:25;;;;;;;25.25;15.20;;;;;;;14.40;49.20;102940.19;5034940;28;20029;-61
2022/03/21 10:11:04;;;;;;;26.45;15.90;;;;;;;14.37;47.78;102957.72;5033185;28;20034;-59
2022/03/21 10:13:32;;;;;;;24.67;15.15;;;;;;;14.40;48.20;102948.06;5036704;28;20093;-61
2022/03/21 10:16:15;;;;;;;26.27;16.65;;;;;;;14.48;48.21;102948.13;5038867;28;20039;-61
2022/03/21 10:18:52;;;;;;;26.92;16.17;;;;;;;14.47;48.54;102946.38;5037428;28;20052;-61
2022/03/21 10:21:18;;;;;;;28.50;16.58;;;;;;;14.45;47.49;102948.09;5038243;28;20050;-61
2022/03/21 10:23:47;;;;;;;25.10;16.17;;;;;;;14.50;46.82;102943.75;5038734;28;20451;-61
2022/03/21 10:26:34;;;;;;;30.55;15.68;;;;;;;14.59;48.14;102928.84;5038549;28;20029;-61
2022/03/21 10:29:05;;;;;;;22.17;15.75;;;;;;;14.81;46.74;102948.25;5037975;28;20490;-61
2022/03/21 10:31:43;;;;;;;30.15;17.35;;;;;;;14.83;46.78;102919.25;5038476;28;20122;-61
2022/03/21 10:34:16;;;;;;;27.58;17.40;;;;;;;14.93;47.31;102943.00;5038440;28;20030;-61
2022/03/21 10:37:03;;;;;;;25.25;16.65;;;;;;;15.02;47.78;102942.13;5038534;28;20044;-61
2022/03/21 10:39:31;;;;;;;25.17;16.98;;;;;;;15.11;46.04;102946.53;5037876;28;20029;-62
2022/03/21 10:42:03;;;;;;;32.10;16.75;;;;;;;15.16;46.29;102950.94;5038258;28;20479;-61
2022/03/21 10:44:28;;;;;;;26.55;16.73;;;;;;;15.07;45.77;102939.50;5038547;28;20518;-61
2022/03/21 10:46:55;;;;;;;26.70;17.35;;;;;;;15.24;46.51;102941.25;5038317;28;20185;-61
2022/03/21 10:49:31;;;;;;;25.88;16.48;;;;;;;15.27;46.38;102938.63;5038225;28;20045;-61
2022/03/21 10:51:56;;;;;;;30.17;17.52;;;;;;;15.30;46.44;102937.75;5038159;28;20110;-61
2022/03/21 10:54:48;;;;;;;28.08;17.20;;;;;;;15.45;46.73;102927.22;5037902;28;20037;-60
2022/03/21 10:57:45;;;;;;;26.58;17.58;;;;;;;15.64;46.60;102929.00;5038363;28;20022;-61
2022/03/21 11:00:20;;;;;;;25.98;17.58;;;;;;;15.70;45.20;102922.84;5014813;28;20057;-61
2022/03/21 11:02:57;;;;;;;26.00;16.75;;;;;;;15.92;46.13;102918.41;5037861;28;20040;-61
2022/03/21 11:05:25;;;;;;;26.77;17.17;;;;;;;16.08;45.97;102924.53;5038137;28;20033;-61
2022/03/21 11:07:50;;;;;;;28.35;17.60;;;;;;;16.05;44.94;102925.41;5038183;28;20041;-61
2022/03/21 11:10:17;;;;;;;26.20;18.00;;;;;;;15.93;44.77;102914.88;5038112;28;20029;-61
2022/03/21 11:12:43;;;;;;;28.27;17.50;;;;;;;15.90;45.09;102915.75;5038131;28;20140;-61
2022/03/21 11:15:09;;;;;;;28.88;18.08;;;;;;;16.07;45.51;102913.06;5038132;28;20088;-61
2022/03/21 11:17:36;;;;;;;26.77;17.48;;;;;;;16.20;45.16;102909.50;5037826;28;20124;-61
2022/03/21 11:20:03;;;;;;;28.52;18.00;;;;;;;16.20;44.51;102919.19;5037719;28;20092;-60
2022/03/21 11:22:29;;;;;;;29.42;17.67;;;;;;;16.05;45.24;102908.69;5037751;28;20084;-60
2022/03/21 11:25:16;;;;;;;27.90;17.23;;;;;;;16.06;45.82;102903.38;5037442;28;20480;-60
2022/03/21 11:28:05;;;;;;;27.35;17.88;;;;;;;16.31;46.05;102902.41;5037636;28;20029;-61
2022/03/21 11:30:44;;;;;;;29.45;19.13;;;;;;;16.53;45.28;102912.88;5037447;28;20036;-60